Olmitz, Kansas
Current Conditions -  °F | °C
As of 11:15 AM on Sunday 21 Dec 2014 (Local Time) from KGBD Reporting Station
Overcast Overcast  
Wind Chill: 33°   Ceiling: 600
Heat Index: 41°   Visibility: 4mi
Dew Point: 36°   Wind: 16mph
Humidity: 81%   Direction: 170°S
Pressure: 29.83"   Gusts: NA
Location:  38.52°N, 98.94°W
Report Text: KGBD 211715Z AUTO 17014KT 4SM OVC006 05/02 A2983 RMK AO1
Loading
Personal Weather Stations






























Interactive Weather Map New forecast layout! Learn more

10-Day Weather Forecast

Advertisements
Track Severe Weather on mobile